Main page
METAR-TAF:

METAR-TAF

Airports :

Şırnak Airport

Şırnak, Turkey

latitude: 37-21-50N, longitude: 42-03-36E, elevation: 621 m

Current weather observation

The report was made 1 hour and 19 minutes ago, at 14:50 UTC
Wind 8 kt from the Southeast
Temperature 39°C
Humidity 14%
Pressure 995 hPa
Visibility 10 km or more
no clouds below 1500 m and no cumulonimbus

METAR: LTCV 251450Z 14008KT CAVOK 39/07 Q0995

Time: 19:09 (16:09 UTC)

Forecast

The report was made 5 hours and 29 minutes ago, at 10:40 UTC
Forecast valid from 25 at 12 UTC to 26 at 12 UTC
Wind 9 kt from the South/Southwest
Visibility 10 km or more
no clouds below 1500 m and no cumulonimbus
Temporary
from 25 at 12 UTC to 25 at 15 UTC
Wind 15 kt from the West

TAF: LTCV 251040Z 2512/2612 20009KT CAVOK TEMPO 2512/2515 27015KT

Weather observations and forecasts of more than 4000 airports (METAR and TAF reports).

The available stations are represented by yellow and red dots on the map.

Hover mouse over dot to see the name of the station.

Then click to see weather observations and forecasts.

To change the map : click on the green buttons with a black cross to zoom in, on the green button with a dash to zoom out, or on the green arrows for adjacent maps.


METAR-TAF: